Midway, South Carolina
Current Conditions -  °F | °C
As of 6:53 AM on Saturday 22 Nov 2014 (Local Time) from KOGB Reporting Station
Clear Clear  
Wind Chill: 26°   Ceiling: Unl
Heat Index: 32°   Visibility: 10mi
Dew Point: 20°   Wind: 6mph
Humidity: 61%   Direction: 50°NE
Pressure: 30.52"   Gusts: NA
Location:  33.2349°N, 80.9745°W
Report Text: KOGB 221153Z AUTO 05005KT 10SM CLR 00/M07 A3052 RMK AO2 SLP335 T00001067 10050 20000 51006
Loading
Personal Weather Stations






























Interactive Weather Map New forecast layout! Learn more

10-Day Weather Forecast

Advertisements
Track Severe Weather on mobile